sensor_id;sensor_type;location;lat;lon;timestamp;temperature;humidity
37646;DHT22;23489;49.600;6.138;2024-02-21T00:00:55;7.20;99.90
37646;DHT22;23489;49.600;6.138;2024-02-21T00:03:20;7.30;99.90
37646;DHT22;23489;49.600;6.138;2024-02-21T00:05:46;7.20;99.90
37646;DHT22;23489;49.600;6.138;2024-02-21T00:08:12;7.20;99.90
37646;DHT22;23489;49.600;6.138;2024-02-21T00:10:38;7.20;99.90
37646;DHT22;23489;49.600;6.138;2024-02-21T00:13:03;7.20;99.90
37646;DHT22;23489;49.600;6.138;2024-02-21T00:15:29;7.20;99.90
37646;DHT22;23489;49.600;6.138;2024-02-21T00:17:55;7.20;99.90
37646;DHT22;23489;49.600;6.138;2024-02-21T00:20:20;7.20;99.90
37646;DHT22;23489;49.600;6.138;2024-02-21T00:22:46;7.30;99.90
37646;DHT22;23489;49.600;6.138;2024-02-21T00:25:12;7.30;99.90
37646;DHT22;23489;49.600;6.138;2024-02-21T00:27:38;7.30;99.90
37646;DHT22;23489;49.600;6.138;2024-02-21T00:30:05;7.30;99.90
37646;DHT22;23489;49.600;6.138;2024-02-21T00:32:31;7.30;99.90
37646;DHT22;23489;49.600;6.138;2024-02-21T00:34:57;7.20;99.90
37646;DHT22;23489;49.600;6.138;2024-02-21T00:37:23;7.20;99.90
37646;DHT22;23489;49.600;6.138;2024-02-21T00:39:49;7.20;99.90
37646;DHT22;23489;49.600;6.138;2024-02-21T00:42:14;7.30;99.90
37646;DHT22;23489;49.600;6.138;2024-02-21T00:44:40;7.30;99.90
37646;DHT22;23489;49.600;6.138;2024-02-21T00:47:06;7.30;99.90
37646;DHT22;23489;49.600;6.138;2024-02-21T00:49:31;7.40;99.90
37646;DHT22;23489;49.600;6.138;2024-02-21T00:51:57;7.40;99.90
37646;DHT22;23489;49.600;6.138;2024-02-21T00:54:22;7.30;99.90
37646;DHT22;23489;49.600;6.138;2024-02-21T00:56:48;7.40;99.90
37646;DHT22;23489;49.600;6.138;2024-02-21T00:59:14;7.30;99.90
37646;DHT22;23489;49.600;6.138;2024-02-21T01:01:39;7.40;99.90
37646;DHT22;23489;49.600;6.138;2024-02-21T01:04:09;7.40;99.90
37646;DHT22;23489;49.600;6.138;2024-02-21T01:06:34;7.30;99.90
37646;DHT22;23489;49.600;6.138;2024-02-21T01:09:00;7.30;99.90
37646;DHT22;23489;49.600;6.138;2024-02-21T01:11:26;7.30;99.90
37646;DHT22;23489;49.600;6.138;2024-02-21T01:13:53;7.30;99.90
37646;DHT22;23489;49.600;6.138;2024-02-21T01:16:20;7.20;99.90
37646;DHT22;23489;49.600;6.138;2024-02-21T01:18:46;7.20;99.90
37646;DHT22;23489;49.600;6.138;2024-02-21T01:21:12;7.20;99.90
37646;DHT22;23489;49.600;6.138;2024-02-21T01:23:37;7.20;99.90
37646;DHT22;23489;49.600;6.138;2024-02-21T01:26:03;7.10;99.90
37646;DHT22;23489;49.600;6.138;2024-02-21T01:28:29;7.10;99.90
37646;DHT22;23489;49.600;6.138;2024-02-21T01:30:56;7.10;99.90
37646;DHT22;23489;49.600;6.138;2024-02-21T01:33:21;7.20;99.90
37646;DHT22;23489;49.600;6.138;2024-02-21T01:35:47;7.10;99.90
37646;DHT22;23489;49.600;6.138;2024-02-21T01:38:12;7.10;99.90
37646;DHT22;23489;49.600;6.138;2024-02-21T01:40:38;7.10;99.90
37646;DHT22;23489;49.600;6.138;2024-02-21T01:43:14;7.10;99.90
37646;DHT22;23489;49.600;6.138;2024-02-21T01:45:40;7.10;99.90
37646;DHT22;23489;49.600;6.138;2024-02-21T01:48:06;7.00;99.90
37646;DHT22;23489;49.600;6.138;2024-02-21T01:50:32;7.00;99.90
37646;DHT22;23489;49.600;6.138;2024-02-21T01:52:58;7.00;99.90
37646;DHT22;23489;49.600;6.138;2024-02-21T01:55:24;7.10;99.90
37646;DHT22;23489;49.600;6.138;2024-02-21T01:57:50;7.10;99.90
37646;DHT22;23489;49.600;6.138;2024-02-21T02:00:16;7.10;99.90
37646;DHT22;23489;49.600;6.138;2024-02-21T02:02:42;7.00;99.90
37646;DHT22;23489;49.600;6.138;2024-02-21T02:05:08;7.00;99.90
37646;DHT22;23489;49.600;6.138;2024-02-21T02:07:34;7.00;99.90
37646;DHT22;23489;49.600;6.138;2024-02-21T02:10:00;7.00;99.90
37646;DHT22;23489;49.600;6.138;2024-02-21T02:12:26;7.00;99.90
37646;DHT22;23489;49.600;6.138;2024-02-21T02:15:02;7.10;99.90
37646;DHT22;23489;49.600;6.138;2024-02-21T02:17:31;7.10;99.90
37646;DHT22;23489;49.600;6.138;2024-02-21T02:19:56;7.10;99.90
37646;DHT22;23489;49.600;6.138;2024-02-21T02:22:23;7.10;99.90
37646;DHT22;23489;49.600;6.138;2024-02-21T02:24:50;7.10;99.90
37646;DHT22;23489;49.600;6.138;2024-02-21T02:27:15;7.10;99.90
37646;DHT22;23489;49.600;6.138;2024-02-21T02:29:41;7.10;99.90
37646;DHT22;23489;49.600;6.138;2024-02-21T02:32:06;7.00;99.90
37646;DHT22;23489;49.600;6.138;2024-02-21T02:34:32;7.00;99.90
37646;DHT22;23489;49.600;6.138;2024-02-21T02:36:58;7.00;99.90
37646;DHT22;23489;49.600;6.138;2024-02-21T02:39:23;7.00;99.90
37646;DHT22;23489;49.600;6.138;2024-02-21T02:41:49;6.90;99.90
37646;DHT22;23489;49.600;6.138;2024-02-21T02:44:14;7.00;99.90
37646;DHT22;23489;49.600;6.138;2024-02-21T02:46:40;7.00;99.90
37646;DHT22;23489;49.600;6.138;2024-02-21T02:49:06;7.00;99.90
37646;DHT22;23489;49.600;6.138;2024-02-21T02:51:32;7.00;99.90
37646;DHT22;23489;49.600;6.138;2024-02-21T02:53:57;7.00;99.90
37646;DHT22;23489;49.600;6.138;2024-02-21T02:56:23;7.00;99.90
37646;DHT22;23489;49.600;6.138;2024-02-21T02:58:48;7.00;99.90
37646;DHT22;23489;49.600;6.138;2024-02-21T03:01:14;7.00;99.90
37646;DHT22;23489;49.600;6.138;2024-02-21T03:03:40;7.00;99.90
37646;DHT22;23489;49.600;6.138;2024-02-21T03:06:06;7.00;99.90
37646;DHT22;23489;49.600;6.138;2024-02-21T03:08:31;7.10;99.90
37646;DHT22;23489;49.600;6.138;2024-02-21T03:10:58;7.10;99.90
37646;DHT22;23489;49.600;6.138;2024-02-21T03:13:25;7.10;99.90
37646;DHT22;23489;49.600;6.138;2024-02-21T03:15:51;7.10;99.90
37646;DHT22;23489;49.600;6.138;2024-02-21T03:18:16;7.00;99.90
37646;DHT22;23489;49.600;6.138;2024-02-21T03:20:42;7.00;99.90
37646;DHT22;23489;49.600;6.138;2024-02-21T03:23:07;7.00;99.90
37646;DHT22;23489;49.600;6.138;2024-02-21T03:25:33;7.00;99.90
37646;DHT22;23489;49.600;6.138;2024-02-21T03:27:59;7.00;99.90
37646;DHT22;23489;49.600;6.138;2024-02-21T03:30:24;6.90;99.90
37646;DHT22;23489;49.600;6.138;2024-02-21T03:32:50;6.90;99.90
37646;DHT22;23489;49.600;6.138;2024-02-21T03:35:16;6.90;99.90
37646;DHT22;23489;49.600;6.138;2024-02-21T03:37:41;6.90;99.90
37646;DHT22;23489;49.600;6.138;2024-02-21T03:40:10;6.90;99.90
37646;DHT22;23489;49.600;6.138;2024-02-21T03:42:36;6.90;99.90
37646;DHT22;23489;49.600;6.138;2024-02-21T03:45:01;6.90;99.90
37646;DHT22;23489;49.600;6.138;2024-02-21T03:47:27;6.90;99.90
37646;DHT22;23489;49.600;6.138;2024-02-21T03:49:53;6.90;99.90
37646;DHT22;23489;49.600;6.138;2024-02-21T03:52:18;6.90;99.90
37646;DHT22;23489;49.600;6.138;2024-02-21T03:54:44;6.90;99.90
37646;DHT22;23489;49.600;6.138;2024-02-21T03:57:10;6.90;99.90
37646;DHT22;23489;49.600;6.138;2024-02-21T03:59:36;6.80;99.90
37646;DHT22;23489;49.600;6.138;2024-02-21T04:02:04;6.80;99.90
37646;DHT22;23489;49.600;6.138;2024-02-21T04:04:34;6.80;99.90
37646;DHT22;23489;49.600;6.138;2024-02-21T04:07:00;6.80;99.90
37646;DHT22;23489;49.600;6.138;2024-02-21T04:09:26;6.80;99.90
37646;DHT22;23489;49.600;6.138;2024-02-21T04:11:52;6.90;99.90
37646;DHT22;23489;49.600;6.138;2024-02-21T04:14:17;6.90;99.90
37646;DHT22;23489;49.600;6.138;2024-02-21T04:16:43;6.90;99.90
37646;DHT22;23489;49.600;6.138;2024-02-21T04:19:09;6.90;99.90
37646;DHT22;23489;49.600;6.138;2024-02-21T04:21:35;6.90;99.90
37646;DHT22;23489;49.600;6.138;2024-02-21T04:24:00;6.90;99.90
37646;DHT22;23489;49.600;6.138;2024-02-21T04:26:27;6.90;99.90
37646;DHT22;23489;49.600;6.138;2024-02-21T04:28:53;6.90;99.90
37646;DHT22;23489;49.600;6.138;2024-02-21T04:31:18;6.90;99.90
37646;DHT22;23489;49.600;6.138;2024-02-21T04:33:44;6.90;99.90
37646;DHT22;23489;49.600;6.138;2024-02-21T04:36:10;6.90;99.90
37646;DHT22;23489;49.600;6.138;2024-02-21T04:38:35;6.90;99.90
37646;DHT22;23489;49.600;6.138;2024-02-21T04:41:01;6.90;99.90
37646;DHT22;23489;49.600;6.138;2024-02-21T04:43:27;6.90;99.90
37646;DHT22;23489;49.600;6.138;2024-02-21T04:45:52;6.90;99.90
37646;DHT22;23489;49.600;6.138;2024-02-21T04:48:19;6.90;99.90
37646;DHT22;23489;49.600;6.138;2024-02-21T04:50:44;6.80;99.90
37646;DHT22;23489;49.600;6.138;2024-02-21T04:53:10;6.80;99.90
37646;DHT22;23489;49.600;6.138;2024-02-21T04:55:36;6.80;99.90
37646;DHT22;23489;49.600;6.138;2024-02-21T04:58:01;6.80;99.90
37646;DHT22;23489;49.600;6.138;2024-02-21T05:00:27;6.80;99.90
37646;DHT22;23489;49.600;6.138;2024-02-21T05:02:53;6.80;99.90
37646;DHT22;23489;49.600;6.138;2024-02-21T05:05:19;6.80;99.90
37646;DHT22;23489;49.600;6.138;2024-02-21T05:07:44;6.90;99.90
37646;DHT22;23489;49.600;6.138;2024-02-21T05:10:10;6.90;99.90
37646;DHT22;23489;49.600;6.138;2024-02-21T05:12:36;6.80;99.90
37646;DHT22;23489;49.600;6.138;2024-02-21T05:15:03;6.80;99.90
37646;DHT22;23489;49.600;6.138;2024-02-21T05:17:28;6.80;99.90
37646;DHT22;23489;49.600;6.138;2024-02-21T05:19:54;6.80;99.90
37646;DHT22;23489;49.600;6.138;2024-02-21T05:22:20;6.90;99.90
37646;DHT22;23489;49.600;6.138;2024-02-21T05:24:45;6.90;99.90
37646;DHT22;23489;49.600;6.138;2024-02-21T05:27:11;6.80;99.90
37646;DHT22;23489;49.600;6.138;2024-02-21T05:29:37;6.80;99.90
37646;DHT22;23489;49.600;6.138;2024-02-21T05:32:03;6.80;99.90
37646;DHT22;23489;49.600;6.138;2024-02-21T05:34:28;6.80;99.90
37646;DHT22;23489;49.600;6.138;2024-02-21T05:36:54;6.80;99.90
37646;DHT22;23489;49.600;6.138;2024-02-21T05:39:20;6.80;99.90
37646;DHT22;23489;49.600;6.138;2024-02-21T05:41:48;6.80;99.90
37646;DHT22;23489;49.600;6.138;2024-02-21T05:44:15;6.80;99.90
37646;DHT22;23489;49.600;6.138;2024-02-21T05:46:40;6.80;99.90
37646;DHT22;23489;49.600;6.138;2024-02-21T05:49:06;6.80;99.90
37646;DHT22;23489;49.600;6.138;2024-02-21T05:51:33;6.70;99.90
37646;DHT22;23489;49.600;6.138;2024-02-21T05:53:59;6.70;99.90
37646;DHT22;23489;49.600;6.138;2024-02-21T05:56:24;6.70;99.90
37646;DHT22;23489;49.600;6.138;2024-02-21T05:58:50;6.80;99.90
37646;DHT22;23489;49.600;6.138;2024-02-21T06:01:16;6.80;99.90
37646;DHT22;23489;49.600;6.138;2024-02-21T06:03:43;6.80;99.90
37646;DHT22;23489;49.600;6.138;2024-02-21T06:06:09;6.70;99.90
37646;DHT22;23489;49.600;6.138;2024-02-21T06:08:34;6.70;99.90
37646;DHT22;23489;49.600;6.138;2024-02-21T06:11:00;6.70;99.90
37646;DHT22;23489;49.600;6.138;2024-02-21T06:13:26;6.70;99.90
37646;DHT22;23489;49.600;6.138;2024-02-21T06:15:52;6.70;99.90
37646;DHT22;23489;49.600;6.138;2024-02-21T06:18:18;6.70;99.90
37646;DHT22;23489;49.600;6.138;2024-02-21T06:20:44;6.70;99.90
37646;DHT22;23489;49.600;6.138;2024-02-21T06:23:11;6.70;99.90
37646;DHT22;23489;49.600;6.138;2024-02-21T06:25:38;6.70;99.90
37646;DHT22;23489;49.600;6.138;2024-02-21T06:28:04;6.70;99.90
37646;DHT22;23489;49.600;6.138;2024-02-21T06:30:29;6.70;99.90
37646;DHT22;23489;49.600;6.138;2024-02-21T06:32:55;6.70;99.90
37646;DHT22;23489;49.600;6.138;2024-02-21T06:35:21;6.70;99.90
37646;DHT22;23489;49.600;6.138;2024-02-21T06:37:50;6.70;99.90
37646;DHT22;23489;49.600;6.138;2024-02-21T06:40:23;6.80;99.90
37646;DHT22;23489;49.600;6.138;2024-02-21T06:42:49;6.80;99.90
37646;DHT22;23489;49.600;6.138;2024-02-21T06:45:16;6.80;99.90
37646;DHT22;23489;49.600;6.138;2024-02-21T06:47:42;6.70;99.90
37646;DHT22;23489;49.600;6.138;2024-02-21T06:50:08;6.70;99.90
37646;DHT22;23489;49.600;6.138;2024-02-21T06:52:36;6.70;99.90
37646;DHT22;23489;49.600;6.138;2024-02-21T06:55:02;6.80;99.90
37646;DHT22;23489;49.600;6.138;2024-02-21T06:57:29;6.80;99.90
37646;DHT22;23489;49.600;6.138;2024-02-21T06:59:55;6.80;99.90
37646;DHT22;23489;49.600;6.138;2024-02-21T07:02:21;6.80;99.90
37646;DHT22;23489;49.600;6.138;2024-02-21T07:04:47;6.80;99.90
37646;DHT22;23489;49.600;6.138;2024-02-21T07:07:12;6.80;99.90
37646;DHT22;23489;49.600;6.138;2024-02-21T07:09:38;6.80;99.90
37646;DHT22;23489;49.600;6.138;2024-02-21T07:12:04;6.80;99.90
37646;DHT22;23489;49.600;6.138;2024-02-21T07:14:32;6.90;99.90
37646;DHT22;23489;49.600;6.138;2024-02-21T07:16:57;6.90;99.90
37646;DHT22;23489;49.600;6.138;2024-02-21T07:19:23;6.90;99.90
37646;DHT22;23489;49.600;6.138;2024-02-21T07:21:49;6.90;99.90
37646;DHT22;23489;49.600;6.138;2024-02-21T07:24:15;7.00;99.90
37646;DHT22;23489;49.600;6.138;2024-02-21T07:26:44;7.00;99.90
37646;DHT22;23489;49.600;6.138;2024-02-21T07:29:10;6.90;99.90
37646;DHT22;23489;49.600;6.138;2024-02-21T07:31:42;7.00;99.90
37646;DHT22;23489;49.600;6.138;2024-02-21T07:34:08;7.00;99.90
37646;DHT22;23489;49.600;6.138;2024-02-21T07:36:34;7.00;99.90
37646;DHT22;23489;49.600;6.138;2024-02-21T07:39:00;7.00;99.90
37646;DHT22;23489;49.600;6.138;2024-02-21T07:41:26;7.00;99.90
37646;DHT22;23489;49.600;6.138;2024-02-21T07:43:54;7.00;99.90
37646;DHT22;23489;49.600;6.138;2024-02-21T07:46:19;7.00;99.90
37646;DHT22;23489;49.600;6.138;2024-02-21T07:48:45;7.10;99.90
37646;DHT22;23489;49.600;6.138;2024-02-21T07:51:12;7.10;99.90
37646;DHT22;23489;49.600;6.138;2024-02-21T07:53:38;7.20;99.90
37646;DHT22;23489;49.600;6.138;2024-02-21T07:56:04;7.20;99.90
37646;DHT22;23489;49.600;6.138;2024-02-21T07:58:30;7.20;99.90
37646;DHT22;23489;49.600;6.138;2024-02-21T08:00:56;7.40;99.90
37646;DHT22;23489;49.600;6.138;2024-02-21T08:03:21;7.40;99.90
37646;DHT22;23489;49.600;6.138;2024-02-21T08:05:48;7.50;99.90
37646;DHT22;23489;49.600;6.138;2024-02-21T08:08:14;7.60;99.90
37646;DHT22;23489;49.600;6.138;2024-02-21T08:10:45;7.60;99.90
37646;DHT22;23489;49.600;6.138;2024-02-21T08:13:11;7.60;99.90
37646;DHT22;23489;49.600;6.138;2024-02-21T08:15:37;7.70;99.90
37646;DHT22;23489;49.600;6.138;2024-02-21T08:18:05;7.60;99.90
37646;DHT22;23489;49.600;6.138;2024-02-21T08:20:31;7.60;99.90
37646;DHT22;23489;49.600;6.138;2024-02-21T08:22:57;7.70;99.90
37646;DHT22;23489;49.600;6.138;2024-02-21T08:25:22;7.60;99.90
37646;DHT22;23489;49.600;6.138;2024-02-21T08:27:48;7.60;99.90
37646;DHT22;23489;49.600;6.138;2024-02-21T08:30:14;7.70;99.90
37646;DHT22;23489;49.600;6.138;2024-02-21T08:32:40;7.70;99.90
37646;DHT22;23489;49.600;6.138;2024-02-21T08:35:06;7.80;99.90
37646;DHT22;23489;49.600;6.138;2024-02-21T08:37:31;7.80;99.90
37646;DHT22;23489;49.600;6.138;2024-02-21T08:39:57;7.80;99.90
37646;DHT22;23489;49.600;6.138;2024-02-21T08:42:23;7.90;99.90
37646;DHT22;23489;49.600;6.138;2024-02-21T08:44:48;7.90;99.90
37646;DHT22;23489;49.600;6.138;2024-02-21T08:47:14;7.90;99.90
37646;DHT22;23489;49.600;6.138;2024-02-21T08:49:40;7.90;99.90
37646;DHT22;23489;49.600;6.138;2024-02-21T08:52:06;7.90;99.90
37646;DHT22;23489;49.600;6.138;2024-02-21T08:54:32;7.90;99.90
37646;DHT22;23489;49.600;6.138;2024-02-21T08:57:00;8.00;99.90
37646;DHT22;23489;49.600;6.138;2024-02-21T08:59:26;8.10;99.90
37646;DHT22;23489;49.600;6.138;2024-02-21T09:01:52;8.10;99.90
37646;DHT22;23489;49.600;6.138;2024-02-21T09:04:18;8.20;99.90
37646;DHT22;23489;49.600;6.138;2024-02-21T09:06:45;8.30;99.90
37646;DHT22;23489;49.600;6.138;2024-02-21T09:09:11;8.40;99.90
37646;DHT22;23489;49.600;6.138;2024-02-21T09:11:38;8.40;99.90
37646;DHT22;23489;49.600;6.138;2024-02-21T09:14:03;8.30;99.90
37646;DHT22;23489;49.600;6.138;2024-02-21T09:16:32;8.30;99.90
37646;DHT22;23489;49.600;6.138;2024-02-21T09:18:58;8.30;99.90
37646;DHT22;23489;49.600;6.138;2024-02-21T09:21:24;8.40;99.90
37646;DHT22;23489;49.600;6.138;2024-02-21T09:23:50;8.30;99.90
37646;DHT22;23489;49.600;6.138;2024-02-21T09:26:15;8.20;99.90
37646;DHT22;23489;49.600;6.138;2024-02-21T09:28:45;8.20;99.90
37646;DHT22;23489;49.600;6.138;2024-02-21T09:31:11;8.20;99.90
37646;DHT22;23489;49.600;6.138;2024-02-21T09:33:37;8.20;99.90
37646;DHT22;23489;49.600;6.138;2024-02-21T09:36:03;8.20;99.90
37646;DHT22;23489;49.600;6.138;2024-02-21T09:38:31;8.30;99.90
37646;DHT22;23489;49.600;6.138;2024-02-21T09:41:16;8.40;99.90
37646;DHT22;23489;49.600;6.138;2024-02-21T09:43:45;8.30;99.90
37646;DHT22;23489;49.600;6.138;2024-02-21T09:46:18;8.30;99.90
37646;DHT22;23489;49.600;6.138;2024-02-21T09:49:20;8.30;99.90
37646;DHT22;23489;49.600;6.138;2024-02-21T09:51:50;8.20;99.90
37646;DHT22;23489;49.600;6.138;2024-02-21T09:54:16;8.20;99.90
37646;DHT22;23489;49.600;6.138;2024-02-21T09:56:47;8.40;99.90
37646;DHT22;23489;49.600;6.138;2024-02-21T09:59:16;8.50;99.90
37646;DHT22;23489;49.600;6.138;2024-02-21T10:01:45;8.50;99.90
37646;DHT22;23489;49.600;6.138;2024-02-21T10:04:12;8.60;99.90
37646;DHT22;23489;49.600;6.138;2024-02-21T10:06:38;8.60;99.90
37646;DHT22;23489;49.600;6.138;2024-02-21T10:09:05;8.60;99.90
37646;DHT22;23489;49.600;6.138;2024-02-21T10:11:31;8.60;99.90
37646;DHT22;23489;49.600;6.138;2024-02-21T10:14:06;8.70;99.90
37646;DHT22;23489;49.600;6.138;2024-02-21T10:16:32;8.80;99.90
37646;DHT22;23489;49.600;6.138;2024-02-21T10:18:59;8.90;99.90
37646;DHT22;23489;49.600;6.138;2024-02-21T10:21:24;8.80;99.90
37646;DHT22;23489;49.600;6.138;2024-02-21T10:23:51;9.00;99.90
37646;DHT22;23489;49.600;6.138;2024-02-21T10:26:20;9.20;99.90
37646;DHT22;23489;49.600;6.138;2024-02-21T10:28:49;9.50;99.90
37646;DHT22;23489;49.600;6.138;2024-02-21T10:31:26;9.70;99.90
37646;DHT22;23489;49.600;6.138;2024-02-21T10:33:59;9.80;99.90
37646;DHT22;23489;49.600;6.138;2024-02-21T10:36:29;9.90;99.90
37646;DHT22;23489;49.600;6.138;2024-02-21T10:38:55;9.90;99.90
37646;DHT22;23489;49.600;6.138;2024-02-21T10:41:21;9.90;99.90
37646;DHT22;23489;49.600;6.138;2024-02-21T10:43:52;10.00;99.90
37646;DHT22;23489;49.600;6.138;2024-02-21T10:46:23;10.10;99.90
37646;DHT22;23489;49.600;6.138;2024-02-21T10:49:07;10.10;99.90
37646;DHT22;23489;49.600;6.138;2024-02-21T10:51:35;10.20;99.90
37646;DHT22;23489;49.600;6.138;2024-02-21T10:54:08;10.10;99.90
37646;DHT22;23489;49.600;6.138;2024-02-21T10:56:36;10.30;99.90
37646;DHT22;23489;49.600;6.138;2024-02-21T10:59:07;10.40;99.90
37646;DHT22;23489;49.600;6.138;2024-02-21T11:01:33;10.40;99.90
37646;DHT22;23489;49.600;6.138;2024-02-21T11:04:10;10.50;99.90
37646;DHT22;23489;49.600;6.138;2024-02-21T11:06:38;10.50;99.90
37646;DHT22;23489;49.600;6.138;2024-02-21T11:09:05;10.40;99.90
37646;DHT22;23489;49.600;6.138;2024-02-21T11:11:42;10.30;99.90
37646;DHT22;23489;49.600;6.138;2024-02-21T11:14:18;10.30;99.90
37646;DHT22;23489;49.600;6.138;2024-02-21T11:16:45;10.10;99.90
37646;DHT22;23489;49.600;6.138;2024-02-21T11:19:26;10.10;99.90
37646;DHT22;23489;49.600;6.138;2024-02-21T11:21:53;10.20;99.90
37646;DHT22;23489;49.600;6.138;2024-02-21T11:24:32;10.30;99.90
37646;DHT22;23489;49.600;6.138;2024-02-21T11:27:15;10.20;99.90
37646;DHT22;23489;49.600;6.138;2024-02-21T11:29:44;10.10;99.90
37646;DHT22;23489;49.600;6.138;2024-02-21T11:32:14;10.10;99.90
37646;DHT22;23489;49.600;6.138;2024-02-21T11:34:41;10.20;99.90
37646;DHT22;23489;49.600;6.138;2024-02-21T11:37:13;10.30;99.90
37646;DHT22;23489;49.600;6.138;2024-02-21T11:39:42;10.40;99.90
37646;DHT22;23489;49.600;6.138;2024-02-21T11:42:09;10.40;99.90
37646;DHT22;23489;49.600;6.138;2024-02-21T11:44:36;10.40;99.90
37646;DHT22;23489;49.600;6.138;2024-02-21T11:47:07;10.40;99.90
37646;DHT22;23489;49.600;6.138;2024-02-21T11:49:42;10.40;99.90
37646;DHT22;23489;49.600;6.138;2024-02-21T11:52:08;10.30;99.90
37646;DHT22;23489;49.600;6.138;2024-02-21T11:54:34;10.20;99.90
37646;DHT22;23489;49.600;6.138;2024-02-21T11:57:00;10.20;99.90
37646;DHT22;23489;49.600;6.138;2024-02-21T11:59:26;10.30;99.90
37646;DHT22;23489;49.600;6.138;2024-02-21T12:01:56;10.30;99.90
37646;DHT22;23489;49.600;6.138;2024-02-21T12:04:23;10.30;99.90
37646;DHT22;23489;49.600;6.138;2024-02-21T12:06:49;10.30;99.90
37646;DHT22;23489;49.600;6.138;2024-02-21T12:09:15;10.40;99.90
37646;DHT22;23489;49.600;6.138;2024-02-21T12:11:44;10.40;99.90
37646;DHT22;23489;49.600;6.138;2024-02-21T12:14:10;10.50;99.90
37646;DHT22;23489;49.600;6.138;2024-02-21T12:16:36;10.60;99.90
37646;DHT22;23489;49.600;6.138;2024-02-21T12:19:04;10.60;99.90
37646;DHT22;23489;49.600;6.138;2024-02-21T12:21:32;10.70;99.90
37646;DHT22;23489;49.600;6.138;2024-02-21T12:23:59;10.80;99.90
37646;DHT22;23489;49.600;6.138;2024-02-21T12:26:25;10.90;99.90
37646;DHT22;23489;49.600;6.138;2024-02-21T12:28:51;10.90;99.90
37646;DHT22;23489;49.600;6.138;2024-02-21T12:31:16;11.00;99.90
37646;DHT22;23489;49.600;6.138;2024-02-21T12:33:43;10.80;99.90
37646;DHT22;23489;49.600;6.138;2024-02-21T12:36:09;10.90;99.90
37646;DHT22;23489;49.600;6.138;2024-02-21T12:38:35;11.00;99.90
37646;DHT22;23489;49.600;6.138;2024-02-21T12:41:01;11.00;99.90
37646;DHT22;23489;49.600;6.138;2024-02-21T12:43:27;11.10;99.90
37646;DHT22;23489;49.600;6.138;2024-02-21T12:45:53;11.20;99.90
37646;DHT22;23489;49.600;6.138;2024-02-21T12:48:19;11.20;99.90
37646;DHT22;23489;49.600;6.138;2024-02-21T12:50:49;11.30;99.90
37646;DHT22;23489;49.600;6.138;2024-02-21T12:53:16;11.40;99.90
37646;DHT22;23489;49.600;6.138;2024-02-21T12:55:42;11.50;99.90
37646;DHT22;23489;49.600;6.138;2024-02-21T12:58:08;11.50;99.90
37646;DHT22;23489;49.600;6.138;2024-02-21T13:00:34;11.40;99.90
37646;DHT22;23489;49.600;6.138;2024-02-21T13:03:01;11.50;99.90
37646;DHT22;23489;49.600;6.138;2024-02-21T13:05:26;11.60;99.90
37646;DHT22;23489;49.600;6.138;2024-02-21T13:07:53;11.50;99.90
37646;DHT22;23489;49.600;6.138;2024-02-21T13:10:19;11.40;99.90
37646;DHT22;23489;49.600;6.138;2024-02-21T13:12:45;11.40;99.90
37646;DHT22;23489;49.600;6.138;2024-02-21T13:15:11;11.40;99.90
37646;DHT22;23489;49.600;6.138;2024-02-21T13:17:37;11.30;99.90
37646;DHT22;23489;49.600;6.138;2024-02-21T13:20:03;11.30;99.90
37646;DHT22;23489;49.600;6.138;2024-02-21T13:22:29;11.20;99.90
37646;DHT22;23489;49.600;6.138;2024-02-21T13:24:55;11.20;99.90
37646;DHT22;23489;49.600;6.138;2024-02-21T13:27:21;11.20;99.90
37646;DHT22;23489;49.600;6.138;2024-02-21T13:29:46;11.10;99.90
37646;DHT22;23489;49.600;6.138;2024-02-21T13:32:12;11.20;99.90
37646;DHT22;23489;49.600;6.138;2024-02-21T13:34:38;11.10;99.90
37646;DHT22;23489;49.600;6.138;2024-02-21T13:37:03;10.90;99.90
37646;DHT22;23489;49.600;6.138;2024-02-21T13:39:30;10.80;99.90
37646;DHT22;23489;49.600;6.138;2024-02-21T13:41:55;10.70;99.90
37646;DHT22;23489;49.600;6.138;2024-02-21T13:44:21;10.70;99.90
37646;DHT22;23489;49.600;6.138;2024-02-21T13:46:47;10.80;99.90
37646;DHT22;23489;49.600;6.138;2024-02-21T13:49:12;10.60;99.90
37646;DHT22;23489;49.600;6.138;2024-02-21T13:51:38;10.70;99.90
37646;DHT22;23489;49.600;6.138;2024-02-21T13:54:06;10.70;99.90
37646;DHT22;23489;49.600;6.138;2024-02-21T13:56:34;10.80;99.90
37646;DHT22;23489;49.600;6.138;2024-02-21T13:59:00;10.80;99.90
37646;DHT22;23489;49.600;6.138;2024-02-21T14:01:26;10.80;99.90
37646;DHT22;23489;49.600;6.138;2024-02-21T14:03:53;10.70;99.90
37646;DHT22;23489;49.600;6.138;2024-02-21T14:06:19;10.60;99.90
37646;DHT22;23489;49.600;6.138;2024-02-21T14:08:45;10.50;99.90
37646;DHT22;23489;49.600;6.138;2024-02-21T14:11:11;10.40;99.90
37646;DHT22;23489;49.600;6.138;2024-02-21T14:13:36;10.40;99.90
37646;DHT22;23489;49.600;6.138;2024-02-21T14:16:02;10.40;99.90
37646;DHT22;23489;49.600;6.138;2024-02-21T14:18:28;10.40;99.90
37646;DHT22;23489;49.600;6.138;2024-02-21T14:20:54;10.40;99.90
37646;DHT22;23489;49.600;6.138;2024-02-21T14:23:20;10.40;99.90
37646;DHT22;23489;49.600;6.138;2024-02-21T14:25:46;10.50;99.90
37646;DHT22;23489;49.600;6.138;2024-02-21T14:28:12;10.60;99.90
37646;DHT22;23489;49.600;6.138;2024-02-21T14:30:38;10.50;99.90
37646;DHT22;23489;49.600;6.138;2024-02-21T14:33:03;10.50;99.90
37646;DHT22;23489;49.600;6.138;2024-02-21T14:35:29;10.50;99.90
37646;DHT22;23489;49.600;6.138;2024-02-21T14:37:55;10.50;99.90
37646;DHT22;23489;49.600;6.138;2024-02-21T14:40:23;10.40;99.90
37646;DHT22;23489;49.600;6.138;2024-02-21T14:42:49;10.30;99.90
37646;DHT22;23489;49.600;6.138;2024-02-21T14:45:15;10.30;99.90
37646;DHT22;23489;49.600;6.138;2024-02-21T14:47:40;10.40;99.90
37646;DHT22;23489;49.600;6.138;2024-02-21T14:50:06;10.40;99.90
37646;DHT22;23489;49.600;6.138;2024-02-21T14:52:32;10.30;99.90
37646;DHT22;23489;49.600;6.138;2024-02-21T14:54:58;10.30;99.90
37646;DHT22;23489;49.600;6.138;2024-02-21T14:57:25;10.30;99.90
37646;DHT22;23489;49.600;6.138;2024-02-21T14:59:50;10.20;99.90
37646;DHT22;23489;49.600;6.138;2024-02-21T15:02:22;10.20;99.90
37646;DHT22;23489;49.600;6.138;2024-02-21T15:04:48;10.10;99.90
37646;DHT22;23489;49.600;6.138;2024-02-21T15:07:14;10.20;99.90
37646;DHT22;23489;49.600;6.138;2024-02-21T15:09:40;10.30;99.90
37646;DHT22;23489;49.600;6.138;2024-02-21T15:12:06;10.30;99.90
37646;DHT22;23489;49.600;6.138;2024-02-21T15:14:32;10.20;99.90
37646;DHT22;23489;49.600;6.138;2024-02-21T15:16:57;10.20;99.90
37646;DHT22;23489;49.600;6.138;2024-02-21T15:19:23;10.20;99.90
37646;DHT22;23489;49.600;6.138;2024-02-21T15:21:49;10.20;99.90
37646;DHT22;23489;49.600;6.138;2024-02-21T15:24:15;10.20;99.90
37646;DHT22;23489;49.600;6.138;2024-02-21T15:26:42;10.10;99.90
37646;DHT22;23489;49.600;6.138;2024-02-21T15:29:08;10.10;99.90
37646;DHT22;23489;49.600;6.138;2024-02-21T15:31:34;10.10;99.90
37646;DHT22;23489;49.600;6.138;2024-02-21T15:34:00;10.00;99.90
37646;DHT22;23489;49.600;6.138;2024-02-21T15:36:25;10.00;99.90
37646;DHT22;23489;49.600;6.138;2024-02-21T15:38:53;9.90;99.90